createdAt,value
2024-01-15T14:34:29.835Z,4.09
2024-01-15T14:35:29.666Z,5.21
2024-01-15T14:36:29.711Z,4.99
2024-01-15T14:37:29.697Z,4.62
2024-01-15T14:38:29.695Z,4.19
2024-01-15T14:39:29.791Z,4.16
2024-01-15T14:40:29.691Z,3.94
2024-01-15T14:41:29.716Z,4.28
2024-01-15T14:42:29.731Z,4.14
2024-01-15T14:43:29.729Z,4.86
2024-01-15T14:44:29.709Z,3.83
2024-01-15T14:45:29.765Z,4.10
2024-01-15T14:46:29.799Z,4.82
2024-01-15T14:47:29.769Z,3.53
2024-01-15T14:48:29.839Z,3.05
2024-01-15T14:49:29.792Z,3.15
2024-01-15T14:50:29.671Z,3.42
2024-01-15T14:51:29.742Z,4.29
2024-01-15T14:52:29.708Z,5.00
2024-01-15T14:53:29.795Z,4.58
2024-01-15T14:54:29.760Z,4.33
2024-01-15T14:55:29.796Z,3.92
2024-01-15T14:56:29.834Z,4.02
2024-01-15T14:57:29.885Z,3.75
2024-01-15T14:58:29.946Z,3.98
2024-01-15T14:59:30.026Z,3.67
2024-01-15T15:00:30.118Z,3.90
2024-01-15T15:01:30.170Z,3.61
2024-01-15T15:02:31.597Z,4.13
2024-01-15T15:03:30.175Z,4.12
2024-01-15T15:04:30.203Z,3.85
2024-01-15T15:05:30.172Z,4.15
2024-01-15T15:06:30.309Z,4.21
2024-01-15T15:07:30.435Z,4.47
2024-01-15T15:08:30.160Z,4.43
2024-01-15T15:09:30.147Z,4.87
2024-01-15T15:10:30.133Z,4.56
2024-01-15T15:11:30.090Z,3.99
2024-01-15T15:12:30.200Z,4.28
2024-01-15T15:13:38.161Z,3.98
2024-01-15T15:14:31.148Z,3.81
2024-01-15T15:15:30.161Z,3.65
2024-01-15T15:16:30.143Z,3.45
2024-01-15T15:17:30.174Z,3.47
2024-01-15T15:18:30.219Z,4.27
2024-01-15T15:19:30.333Z,3.31
2024-01-15T15:20:30.231Z,3.57
2024-01-15T15:21:30.239Z,3.45
2024-01-15T15:22:30.278Z,3.51
2024-01-15T15:23:30.291Z,3.50
2024-01-15T15:24:30.329Z,3.68
2024-01-15T15:25:30.381Z,4.47
2024-01-15T15:26:30.526Z,4.64
2024-01-15T15:27:30.468Z,4.58
2024-01-15T15:28:30.604Z,4.53
2024-01-15T15:29:30.608Z,3.94
2024-01-15T15:30:30.604Z,3.89
2024-01-15T15:31:30.541Z,3.73
2024-01-15T15:32:30.702Z,3.77
2024-01-15T15:33:30.804Z,5.11
2024-01-15T15:34:30.735Z,4.63
2024-01-15T15:35:30.673Z,3.98
2024-01-15T15:36:30.708Z,3.97
2024-01-15T15:37:30.720Z,4.05
2024-01-15T15:38:30.792Z,3.54
2024-01-15T15:39:30.840Z,2.90
2024-01-15T15:40:30.926Z,3.82
2024-01-15T15:41:30.924Z,3.76
2024-01-15T15:42:30.950Z,5.22
2024-01-15T15:43:31.179Z,4.39
2024-01-15T15:44:31.045Z,4.80
2024-01-15T15:45:31.185Z,3.83
2024-01-15T15:46:31.156Z,5.66
2024-01-15T15:47:31.529Z,5.37
2024-01-15T15:48:31.403Z,4.90
2024-01-15T15:49:31.400Z,4.76
2024-01-15T15:50:34.369Z,4.84
2024-01-15T15:51:31.391Z,4.05
2024-01-15T15:52:31.371Z,5.54
2024-01-15T15:53:31.387Z,5.65
2024-01-15T15:54:31.431Z,5.82
2024-01-15T15:55:31.346Z,5.52
2024-01-15T15:56:31.349Z,9.05
2024-01-15T15:57:31.384Z,4.74
2024-01-15T15:58:31.377Z,5.04
2024-01-15T15:59:31.379Z,6.40
2024-01-15T16:00:31.423Z,7.27
2024-01-15T16:01:31.419Z,7.91
2024-01-15T16:02:32.598Z,6.09
2024-01-15T16:03:31.416Z,4.57
2024-01-15T16:04:31.553Z,5.11
2024-01-15T16:05:38.125Z,5.00
2024-01-15T16:06:32.534Z,4.30
2024-01-15T16:07:31.454Z,4.45
2024-01-15T16:08:31.432Z,4.72
2024-01-15T16:09:31.436Z,4.41
2024-01-15T16:10:31.380Z,5.35
2024-01-15T16:11:31.367Z,4.51
2024-01-15T16:12:31.453Z,4.54
2024-01-15T16:13:31.392Z,4.79
2024-01-15T16:14:31.433Z,4.54
2024-01-15T16:15:31.418Z,5.03
2024-01-15T16:23:11.431Z,5.02
2024-01-15T16:23:16.144Z,5.34
2024-01-15T16:23:21.183Z,4.77
2024-01-15T16:23:25.683Z,4.50
2024-01-15T16:23:31.033Z,4.98
2024-01-15T16:23:36.998Z,5.35
2024-01-15T16:23:42.325Z,5.86
2024-01-15T16:24:06.007Z,5.05
2024-01-15T16:24:40.821Z,5.05
2024-01-15T16:25:32.618Z,4.42
2024-01-15T16:26:31.714Z,4.79
2024-01-15T16:27:31.501Z,4.77
2024-01-15T16:28:31.578Z,5.29
2024-01-15T16:29:31.445Z,5.46
2024-01-15T16:30:37.456Z,4.68
2024-01-15T16:31:32.520Z,5.05
2024-01-15T16:32:31.556Z,4.93
2024-01-15T16:33:31.523Z,4.97
2024-01-15T16:34:31.477Z,4.51
2024-01-15T16:35:31.599Z,4.75
2024-01-15T16:36:31.572Z,4.56
2024-01-15T16:37:31.465Z,4.96
2024-01-15T16:38:31.528Z,4.85
2024-01-15T16:39:31.488Z,4.99
2024-01-15T16:40:31.773Z,5.12
2024-01-15T16:41:31.489Z,4.84
2024-01-15T16:42:31.451Z,4.44
2024-01-15T16:43:31.511Z,5.01
2024-01-15T16:44:31.565Z,4.40
2024-01-15T16:45:31.509Z,4.68
2024-01-15T16:46:31.582Z,5.78
2024-01-15T16:47:31.689Z,5.55
2024-01-15T16:48:31.808Z,5.25
2024-01-15T16:49:31.742Z,5.34
2024-01-15T16:50:31.852Z,4.81
2024-01-15T16:51:31.847Z,5.61
2024-01-15T16:52:31.925Z,5.53
2024-01-15T16:53:32.005Z,6.45
2024-01-15T16:54:31.951Z,5.98
2024-01-15T16:55:32.022Z,6.11
2024-01-15T16:56:32.089Z,6.83
2024-01-15T16:57:32.057Z,6.91
2024-01-15T16:58:32.100Z,6.98
2024-01-15T16:59:32.132Z,5.85
2024-01-15T17:00:32.132Z,6.89
2024-01-15T17:01:32.180Z,8.66
2024-01-15T17:02:32.186Z,7.72
2024-01-15T17:03:32.287Z,7.18
2024-01-15T17:04:32.292Z,7.33
2024-01-15T17:05:32.293Z,7.24
2024-01-15T17:06:32.321Z,7.93
2024-01-15T17:07:32.370Z,8.02
2024-01-15T17:08:32.537Z,7.39
2024-01-15T17:09:32.466Z,7.19
2024-01-15T17:10:32.541Z,7.41
2024-01-15T17:11:32.608Z,8.32
2024-01-15T17:12:32.618Z,7.70
2024-01-15T17:13:32.666Z,8.85
2024-01-15T17:14:32.817Z,8.48
2024-01-15T17:15:32.738Z,8.47
2024-01-15T17:16:32.734Z,8.31
2024-01-15T17:17:33.058Z,8.87
2024-01-15T17:18:32.833Z,8.33
2024-01-15T17:19:32.826Z,9.13
2024-01-15T17:20:32.955Z,8.60
2024-01-15T17:21:32.848Z,8.11
2024-01-15T17:22:32.861Z,7.61
2024-01-15T17:23:32.992Z,9.17
2024-01-15T17:24:32.959Z,7.91
2024-01-15T17:25:32.999Z,7.82
2024-01-15T17:26:33.068Z,8.59
2024-01-15T17:27:33.057Z,9.14
2024-01-15T17:28:33.118Z,7.76
2024-01-15T17:29:33.190Z,8.92
2024-01-15T17:30:33.173Z,7.60
2024-01-15T17:31:33.170Z,8.79
2024-01-15T17:32:33.445Z,8.15
2024-01-15T17:33:33.382Z,10.08
2024-01-15T17:34:33.472Z,10.27
2024-01-15T17:35:33.461Z,8.41
2024-01-15T17:36:33.424Z,8.74
2024-01-15T17:37:33.477Z,8.13
2024-01-15T17:38:33.599Z,8.93
2024-01-15T17:39:33.550Z,8.96
2024-01-15T17:40:33.606Z,8.60
2024-01-15T17:41:33.820Z,7.87
2024-01-15T17:42:33.681Z,7.91
2024-01-15T17:43:33.750Z,7.82
2024-01-15T17:44:33.821Z,8.19
2024-01-15T17:45:33.859Z,7.49
2024-01-15T17:46:34.009Z,7.95
2024-01-15T17:47:34.025Z,7.81
2024-01-15T17:48:34.083Z,7.78
2024-01-15T17:49:34.029Z,7.40
2024-01-15T17:50:34.240Z,8.42
2024-01-15T17:51:34.213Z,6.41
2024-01-15T17:52:34.150Z,6.72
2024-01-15T17:53:34.256Z,6.71
2024-01-15T17:54:37.113Z,5.82
2024-01-15T17:55:34.233Z,6.35
2024-01-15T17:56:34.272Z,5.93
2024-01-15T17:57:34.223Z,6.33
2024-01-15T17:58:34.316Z,6.03
2024-01-15T17:59:34.322Z,6.19
2024-01-15T18:00:34.237Z,5.80
2024-01-15T18:01:34.259Z,4.90
2024-01-15T18:02:34.267Z,5.69
2024-01-15T18:03:35.054Z,5.42
2024-01-15T18:04:34.230Z,6.16
2024-01-15T18:05:34.473Z,5.74
2024-01-15T18:06:34.315Z,6.14
2024-01-15T18:07:34.236Z,5.89
2024-01-15T18:08:34.414Z,5.63
2024-01-15T18:09:34.240Z,5.06
2024-01-15T18:10:34.607Z,5.81
2024-01-15T18:11:34.255Z,5.41
2024-01-15T18:12:34.279Z,4.95
2024-01-15T18:13:34.284Z,4.90
2024-01-15T18:14:34.324Z,5.99
2024-01-15T18:15:34.241Z,5.69
2024-01-15T18:16:35.108Z,5.40
2024-01-15T18:17:34.434Z,5.65
2024-01-15T18:18:34.432Z,5.67
2024-01-15T18:19:34.252Z,5.31
2024-01-15T18:20:34.358Z,5.97
2024-01-15T18:21:34.308Z,7.75
2024-01-15T18:22:34.257Z,6.65
2024-01-15T18:23:34.383Z,7.21
2024-01-15T18:24:34.304Z,7.35
2024-01-15T18:25:34.303Z,7.00
2024-01-15T18:26:34.360Z,7.56
2024-01-15T18:27:34.306Z,7.49
2024-01-15T18:28:34.389Z,7.00
2024-01-15T18:29:34.340Z,6.91
2024-01-15T18:30:34.797Z,6.52
2024-01-15T18:31:34.361Z,7.33
2024-01-15T18:32:34.325Z,7.48
2024-01-15T18:33:34.510Z,7.99
2024-01-15T18:34:34.557Z,8.43
2024-01-15T18:35:34.333Z,7.32
2024-01-15T18:36:34.282Z,7.84
2024-01-15T18:37:34.329Z,8.42
2024-01-15T18:38:34.411Z,7.67
2024-01-15T18:39:34.311Z,8.01
2024-01-15T18:40:34.346Z,7.64
2024-01-15T18:41:34.368Z,7.26
2024-01-15T18:42:34.306Z,8.24
2024-01-15T18:43:34.351Z,6.74
2024-01-15T18:44:34.399Z,7.31
2024-01-15T18:45:34.386Z,8.60
2024-01-15T18:46:34.424Z,9.45
2024-01-15T18:47:34.561Z,8.11
2024-01-15T18:48:34.631Z,9.11
2024-01-15T18:49:34.606Z,9.43
2024-01-15T18:50:34.691Z,10.62
2024-01-15T18:51:34.671Z,9.04
2024-01-15T18:52:34.724Z,10.43
2024-01-15T18:53:34.814Z,10.42
2024-01-15T18:54:34.793Z,9.63
2024-01-15T18:55:35.981Z,9.47
2024-01-15T18:56:35.006Z,9.95
2024-01-15T18:57:35.583Z,9.75
2024-01-15T18:58:34.991Z,9.14
2024-01-15T18:59:35.090Z,9.86
2024-01-15T19:00:35.108Z,8.65
2024-01-15T19:01:35.102Z,8.86
2024-01-15T19:02:35.220Z,8.98
2024-01-15T19:03:35.242Z,8.85
2024-01-15T19:04:35.277Z,8.53
2024-01-15T19:05:35.297Z,8.03
2024-01-15T19:06:35.303Z,8.20
2024-01-15T19:07:35.280Z,8.02
2024-01-15T19:08:35.449Z,9.40
2024-01-15T19:09:35.356Z,10.61
2024-01-15T19:10:35.399Z,10.44
2024-01-15T19:11:35.486Z,10.89
2024-01-15T19:12:35.503Z,9.80
2024-01-15T19:13:35.565Z,10.03
2024-01-15T19:14:35.577Z,10.91
2024-01-15T19:15:35.595Z,9.58
2024-01-15T19:16:35.642Z,10.34
2024-01-15T19:17:35.792Z,11.11
2024-01-15T19:18:35.864Z,10.64
2024-01-15T19:19:35.842Z,9.37
2024-01-15T19:20:35.830Z,10.80
2024-01-15T19:21:35.810Z,10.63
2024-01-15T19:22:35.916Z,10.01
2024-01-15T19:23:36.020Z,10.45
2024-01-15T19:24:35.877Z,10.20
2024-01-15T19:25:36.041Z,10.09
2024-01-15T19:26:35.956Z,10.44
2024-01-15T19:27:35.961Z,10.97
2024-01-15T19:28:35.962Z,10.65
2024-01-15T19:29:36.012Z,9.87
2024-01-15T19:30:36.074Z,10.43
2024-01-15T19:31:36.068Z,12.11
2024-01-15T19:32:36.124Z,11.00
2024-01-15T19:33:36.876Z,9.76
2024-01-15T19:34:36.215Z,10.71
2024-01-15T19:35:36.286Z,10.33
2024-01-15T19:36:36.265Z,15.18
2024-01-15T19:37:36.292Z,13.46
2024-01-15T19:38:36.480Z,12.43
2024-01-15T19:39:36.382Z,10.48
2024-01-15T19:40:36.371Z,11.05
2024-01-15T19:41:36.480Z,12.17
2024-01-15T19:42:36.448Z,13.25
2024-01-15T19:43:36.527Z,11.55
2024-01-15T19:44:36.628Z,11.21
2024-01-15T19:45:36.594Z,11.28
2024-01-15T19:46:36.587Z,12.54
2024-01-15T19:47:36.737Z,11.49
2024-01-15T19:48:36.704Z,13.54
2024-01-15T19:49:36.805Z,12.19
2024-01-15T19:50:36.794Z,12.17
2024-01-15T19:51:36.758Z,12.78
2024-01-15T19:52:36.796Z,12.59
2024-01-15T19:53:36.928Z,12.40
2024-01-15T19:54:36.954Z,13.28
2024-01-15T19:55:36.915Z,11.91
2024-01-15T19:56:37.200Z,11.78
2024-01-15T19:57:37.094Z,9.33
2024-01-15T19:58:37.139Z,10.17
2024-01-15T19:59:37.204Z,10.96
2024-01-15T20:00:37.201Z,11.23
2024-01-15T20:01:37.170Z,11.12
2024-01-15T20:02:37.330Z,12.47
2024-01-15T20:03:37.381Z,11.84
2024-01-15T20:04:37.345Z,10.77
2024-01-15T20:05:37.482Z,11.21
2024-01-15T20:06:37.478Z,10.39
2024-01-15T20:07:37.514Z,9.92
2024-01-15T20:08:37.566Z,9.71
2024-01-15T20:09:37.534Z,9.13
2024-01-15T20:10:37.617Z,10.60
2024-01-15T20:11:37.846Z,8.86
2024-01-15T20:12:37.651Z,10.08
2024-01-15T20:13:37.762Z,11.06
2024-01-15T20:14:37.818Z,11.39
2024-01-15T20:15:37.803Z,11.62
2024-01-15T20:16:37.883Z,10.05
2024-01-15T20:17:37.976Z,11.24
2024-01-15T20:18:38.087Z,11.63
2024-01-15T20:19:38.141Z,11.60
2024-01-15T20:20:38.127Z,10.35
2024-01-15T20:21:38.144Z,12.39
2024-01-15T20:22:38.214Z,11.74
2024-01-15T20:23:46.489Z,11.84
2024-01-15T20:24:39.249Z,12.30
2024-01-15T20:25:38.246Z,11.13
2024-01-15T20:26:38.370Z,12.49
2024-01-15T20:27:38.243Z,12.06
2024-01-15T20:28:38.395Z,12.31
2024-01-15T20:29:38.272Z,13.53
2024-01-15T20:30:38.273Z,12.68
2024-01-15T20:31:38.271Z,13.81
2024-01-15T20:32:38.760Z,13.94
2024-01-15T20:33:38.354Z,14.02
2024-01-15T20:34:38.239Z,14.65
2024-01-15T20:35:38.382Z,14.50
2024-01-15T20:36:38.408Z,14.34
2024-01-15T20:37:38.414Z,13.74
2024-01-15T20:38:38.631Z,16.51
2024-01-15T20:39:38.569Z,14.94
2024-01-15T20:40:38.661Z,14.45
2024-01-15T20:41:38.664Z,14.20
2024-01-15T20:42:38.690Z,14.76
2024-01-15T20:43:38.783Z,15.41
2024-01-15T20:44:38.846Z,16.98
2024-01-15T20:45:38.797Z,15.35
2024-01-15T20:46:38.889Z,17.00
2024-01-15T20:47:38.963Z,16.78
2024-01-15T20:48:39.002Z,17.72
2024-01-15T20:49:39.021Z,17.88
2024-01-15T20:50:39.080Z,17.61
2024-01-15T20:51:39.043Z,18.95
2024-01-15T20:52:39.107Z,18.11
2024-01-15T20:53:39.241Z,16.76
2024-01-15T20:54:40.293Z,18.40
2024-01-15T20:55:39.279Z,19.99
2024-01-15T20:56:39.385Z,18.55
2024-01-15T20:57:39.350Z,18.13
2024-01-15T20:58:39.419Z,18.55
2024-01-15T20:59:39.483Z,17.70
2024-01-15T21:00:39.498Z,18.68
2024-01-15T21:01:39.520Z,18.12
2024-01-15T21:02:39.615Z,17.90
2024-01-15T21:03:39.632Z,17.35
2024-01-15T21:04:39.641Z,17.75
2024-01-15T21:05:39.710Z,17.55
2024-01-15T21:06:39.771Z,16.15
2024-01-15T21:07:39.728Z,16.73
2024-01-15T21:08:39.822Z,17.40
2024-01-15T21:09:39.766Z,17.57
2024-01-15T21:10:39.819Z,16.35
2024-01-15T21:11:39.970Z,17.27
2024-01-15T21:12:39.963Z,16.30
2024-01-15T21:13:39.992Z,16.34
2024-01-15T21:14:40.072Z,13.81
2024-01-15T21:15:40.043Z,13.77
2024-01-15T21:16:40.059Z,16.03
2024-01-15T21:17:40.214Z,13.59
2024-01-15T21:18:40.249Z,14.32
2024-01-15T21:19:40.247Z,14.09
2024-01-15T21:20:40.360Z,13.82
2024-01-15T21:21:40.303Z,14.01
2024-01-15T21:22:40.379Z,13.54
2024-01-15T21:23:40.442Z,13.88
2024-01-15T21:24:40.412Z,13.36
2024-01-15T21:25:40.398Z,12.81
2024-01-15T21:26:40.571Z,12.95
2024-01-15T21:27:40.580Z,14.17
2024-01-15T21:28:40.576Z,11.76
2024-01-15T21:29:40.629Z,12.70
2024-01-15T21:30:40.703Z,10.73
2024-01-15T21:31:40.635Z,11.77
2024-01-15T21:32:40.769Z,11.65
2024-01-15T21:33:40.952Z,11.50
2024-01-15T21:34:40.757Z,11.39
2024-01-15T21:35:40.904Z,11.87
2024-01-15T21:36:40.868Z,12.13
2024-01-15T21:37:40.934Z,11.58
2024-01-15T21:38:41.052Z,10.57
